createdAt,value
2022-12-17T00:00:33.561Z,20.90
2022-12-17T00:01:33.450Z,20.95
2022-12-17T00:02:33.477Z,20.93
2022-12-17T00:03:33.721Z,20.99
2022-12-17T00:04:33.415Z,20.91
2022-12-17T00:05:33.394Z,20.93
2022-12-17T00:06:33.378Z,20.93
2022-12-17T00:07:33.366Z,20.91
2022-12-17T00:08:33.358Z,20.86
2022-12-17T00:09:33.344Z,20.95
2022-12-17T00:10:33.333Z,20.96
2022-12-17T00:11:33.327Z,20.95
2022-12-17T00:12:33.310Z,20.96
2022-12-17T00:13:33.657Z,20.89
2022-12-17T00:14:33.288Z,20.95
2022-12-17T00:15:33.276Z,20.93
2022-12-17T00:16:33.396Z,20.84
2022-12-17T00:17:33.280Z,20.96
2022-12-17T00:18:33.243Z,20.93
2022-12-17T00:19:33.232Z,20.84
2022-12-17T00:20:33.222Z,20.98
2022-12-17T00:21:33.210Z,20.91
2022-12-17T00:22:33.202Z,20.81
2022-12-17T00:23:33.624Z,20.93
2022-12-17T00:24:33.176Z,20.95
2022-12-17T00:25:33.164Z,20.91
2022-12-17T00:26:33.154Z,20.84
2022-12-17T00:27:33.144Z,20.93
2022-12-17T00:28:33.130Z,20.93
2022-12-17T00:29:33.141Z,20.90
2022-12-17T00:30:33.108Z,20.91
2022-12-17T00:31:33.140Z,20.86
2022-12-17T00:32:33.087Z,20.91
2022-12-17T00:33:33.583Z,20.93
2022-12-17T00:34:33.063Z,20.81
2022-12-17T00:35:33.068Z,20.89
2022-12-17T00:36:33.041Z,20.95
2022-12-17T00:37:33.030Z,20.84
2022-12-17T00:38:33.019Z,20.83
2022-12-17T00:39:33.009Z,20.84
2022-12-17T00:40:32.998Z,20.81
2022-12-17T00:41:33.008Z,20.86
2022-12-17T00:42:32.975Z,20.84
2022-12-17T00:43:33.137Z,20.96
2022-12-17T00:44:32.952Z,20.91
2022-12-17T00:45:32.940Z,20.84
2022-12-17T00:46:32.981Z,20.84
2022-12-17T00:47:32.925Z,20.89
2022-12-17T00:48:33.422Z,20.83
2022-12-17T00:49:32.913Z,20.93
2022-12-17T00:50:32.885Z,20.84
2022-12-17T00:51:32.874Z,20.83
2022-12-17T00:52:32.862Z,20.93
2022-12-17T00:53:33.294Z,20.81
2022-12-17T00:54:32.839Z,20.83
2022-12-17T00:55:32.838Z,20.93
2022-12-17T00:56:32.823Z,20.90
2022-12-17T00:57:32.806Z,20.86
2022-12-17T00:58:32.799Z,20.81
2022-12-17T00:59:32.812Z,20.95
2022-12-17T01:00:32.813Z,20.81
2022-12-17T01:01:32.856Z,20.84
2022-12-17T01:02:32.910Z,20.93
2022-12-17T01:03:33.142Z,20.83
2022-12-17T01:04:32.729Z,20.81
2022-12-17T01:05:32.751Z,20.83
2022-12-17T01:06:32.716Z,20.90
2022-12-17T01:07:32.695Z,20.84
2022-12-17T01:08:32.699Z,20.86
2022-12-17T01:09:32.672Z,20.91
2022-12-17T01:10:32.661Z,20.83
2022-12-17T01:11:32.664Z,20.81
2022-12-17T01:12:32.639Z,20.81
2022-12-17T01:13:32.661Z,20.86
2022-12-17T01:14:32.616Z,20.80
2022-12-17T01:15:32.605Z,20.84
2022-12-17T01:16:32.659Z,20.84
2022-12-17T01:17:32.610Z,20.79
2022-12-17T01:18:32.574Z,20.87
2022-12-17T01:19:32.560Z,20.84
2022-12-17T01:20:32.550Z,20.83
2022-12-17T01:21:32.559Z,20.81
2022-12-17T01:22:32.527Z,20.81
2022-12-17T01:23:32.522Z,20.83
2022-12-17T01:24:32.504Z,20.83
2022-12-17T01:25:32.493Z,20.84
2022-12-17T01:26:32.481Z,20.89
2022-12-17T01:27:32.473Z,20.83
2022-12-17T01:28:32.460Z,20.84
2022-12-17T01:29:32.454Z,20.87
2022-12-17T01:30:32.438Z,20.84
2022-12-17T01:31:35.162Z,20.81
2022-12-17T01:32:32.415Z,20.86
2022-12-17T01:33:32.446Z,20.83
2022-12-17T01:34:32.393Z,20.79
2022-12-17T01:35:32.459Z,20.86
2022-12-17T01:36:32.373Z,20.84
2022-12-17T01:37:32.379Z,20.80
2022-12-17T01:38:32.348Z,20.86
2022-12-17T01:39:32.338Z,20.84
2022-12-17T01:40:32.325Z,20.84
2022-12-17T01:41:32.320Z,20.81
2022-12-17T01:42:32.306Z,20.81
2022-12-17T01:43:32.536Z,20.83
2022-12-17T01:44:32.281Z,20.80
2022-12-17T01:45:32.368Z,20.80
2022-12-17T01:46:32.258Z,20.83
2022-12-17T01:47:32.264Z,20.84
2022-12-17T01:48:32.235Z,20.84
2022-12-17T01:49:32.226Z,20.83
2022-12-17T01:50:32.214Z,20.83
2022-12-17T01:51:32.202Z,20.87
2022-12-17T01:52:32.193Z,20.83
2022-12-17T01:53:32.387Z,20.83
2022-12-17T01:54:32.170Z,20.84
2022-12-17T01:55:32.161Z,20.83
2022-12-17T01:56:32.148Z,20.83
2022-12-17T01:57:32.143Z,20.79
2022-12-17T01:58:32.125Z,20.84
2022-12-17T01:59:32.119Z,20.84
2022-12-17T02:00:32.102Z,20.81
2022-12-17T02:01:32.169Z,20.84
2022-12-17T02:02:32.340Z,20.84
2022-12-17T02:03:32.186Z,20.84
2022-12-17T02:04:32.056Z,20.80
2022-12-17T02:05:32.052Z,20.84
2022-12-17T02:06:32.037Z,20.83
2022-12-17T02:07:32.076Z,20.86
2022-12-17T02:08:32.012Z,20.84
2022-12-17T02:09:32.022Z,20.90
2022-12-17T02:10:31.991Z,20.87
2022-12-17T02:11:32.009Z,20.83
2022-12-17T02:12:31.976Z,20.89
2022-12-17T02:13:32.081Z,20.80
2022-12-17T02:14:31.944Z,20.83
2022-12-17T02:15:31.933Z,20.76
2022-12-17T02:16:31.959Z,20.87
2022-12-17T02:17:31.917Z,20.84
2022-12-17T02:18:31.904Z,20.83
2022-12-17T02:19:31.894Z,20.84
2022-12-17T02:20:31.878Z,20.83
2022-12-17T02:21:31.869Z,20.86
2022-12-17T02:22:31.855Z,20.90
2022-12-17T02:23:31.942Z,20.79
2022-12-17T02:24:31.832Z,20.80
2022-12-17T02:25:31.847Z,20.79
2022-12-17T02:26:31.813Z,20.83
2022-12-17T02:27:31.799Z,20.86
2022-12-17T02:28:31.787Z,20.81
2022-12-17T02:29:31.797Z,20.84
2022-12-17T02:30:31.765Z,20.86
2022-12-17T02:31:31.814Z,20.86
2022-12-17T02:32:31.745Z,20.83
2022-12-17T02:33:32.013Z,20.77
2022-12-17T02:34:31.721Z,20.81
2022-12-17T02:35:31.714Z,20.80
2022-12-17T02:36:31.701Z,20.91
2022-12-17T02:37:31.687Z,20.84
2022-12-17T02:38:31.676Z,20.87
2022-12-17T02:39:31.666Z,20.84
2022-12-17T02:40:31.654Z,20.86
2022-12-17T02:41:31.809Z,20.84
2022-12-17T02:42:31.634Z,20.81
2022-12-17T02:43:31.727Z,20.83
2022-12-17T02:44:31.610Z,20.87
2022-12-17T02:45:31.657Z,20.87
2022-12-17T02:46:31.589Z,20.77
2022-12-17T02:47:31.607Z,20.86
2022-12-17T02:48:31.566Z,20.89
2022-12-17T02:49:31.554Z,20.84
2022-12-17T02:50:31.543Z,20.81
2022-12-17T02:51:31.530Z,20.86
2022-12-17T02:52:34.918Z,20.84
2022-12-17T02:53:31.591Z,20.87
2022-12-17T02:54:31.501Z,20.86
2022-12-17T02:55:31.485Z,20.79
2022-12-17T02:56:31.474Z,20.80
2022-12-17T02:57:31.487Z,20.89
2022-12-17T02:58:31.454Z,20.86
2022-12-17T02:59:31.457Z,20.80
2022-12-17T03:00:31.431Z,20.86
2022-12-17T03:01:31.515Z,20.81
2022-12-17T03:02:31.515Z,20.79
2022-12-17T03:03:31.496Z,20.84
2022-12-17T03:04:31.386Z,20.86
2022-12-17T03:05:46.780Z,20.84
2022-12-17T03:06:32.362Z,20.74
2022-12-17T03:07:31.351Z,20.79
2022-12-17T03:08:31.347Z,20.79
2022-12-17T03:09:31.329Z,20.79
2022-12-17T03:10:31.318Z,20.77
2022-12-17T03:11:31.312Z,20.79
2022-12-17T03:12:31.296Z,20.86
2022-12-17T03:13:31.306Z,20.79
2022-12-17T03:14:31.273Z,20.79
2022-12-17T03:15:31.262Z,20.81
2022-12-17T03:16:37.080Z,20.87
2022-12-17T03:17:32.268Z,20.80
2022-12-17T03:18:31.237Z,20.80
2022-12-17T03:19:31.217Z,20.79
2022-12-17T03:20:31.205Z,20.79
2022-12-17T03:21:31.197Z,20.80
2022-12-17T03:22:31.183Z,20.81
2022-12-17T03:23:31.182Z,20.80
2022-12-17T03:24:31.161Z,20.81
2022-12-17T03:25:31.150Z,20.83
2022-12-17T03:26:31.139Z,20.84
2022-12-17T03:27:31.127Z,20.77
2022-12-17T03:28:31.123Z,20.74
2022-12-17T03:29:31.248Z,20.83
2022-12-17T03:30:35.766Z,20.80
2022-12-17T03:31:32.202Z,20.72
2022-12-17T03:32:31.073Z,20.84
2022-12-17T03:33:31.061Z,20.80
2022-12-17T03:34:31.048Z,20.80
2022-12-17T03:35:31.060Z,20.84
2022-12-17T03:36:31.028Z,20.83
2022-12-17T03:37:31.017Z,20.81
2022-12-17T03:38:31.004Z,20.79
2022-12-17T03:39:30.999Z,20.84
2022-12-17T03:40:30.988Z,20.86
2022-12-17T03:41:30.978Z,20.86
2022-12-17T03:42:30.962Z,20.83
2022-12-17T03:43:30.953Z,20.84
2022-12-17T03:44:30.938Z,20.81
2022-12-17T03:45:30.947Z,20.84
2022-12-17T03:46:31.046Z,20.83
2022-12-17T03:47:30.927Z,20.84
2022-12-17T03:48:30.893Z,20.83
2022-12-17T03:49:30.881Z,20.74
2022-12-17T03:50:30.873Z,20.80
2022-12-17T03:51:30.858Z,20.83
2022-12-17T03:52:30.849Z,20.83
2022-12-17T03:53:30.866Z,20.76
2022-12-17T03:54:30.828Z,20.79
2022-12-17T03:55:30.815Z,20.84
2022-12-17T03:56:30.803Z,20.79
2022-12-17T03:57:30.792Z,20.80
2022-12-17T03:58:30.780Z,20.86
2022-12-17T03:59:30.775Z,20.79
2022-12-17T04:00:30.758Z,20.77
2022-12-17T04:01:30.896Z,20.79
2022-12-17T04:02:30.907Z,20.77
2022-12-17T04:03:30.760Z,20.89
2022-12-17T04:04:30.716Z,20.83
2022-12-17T04:05:30.707Z,20.81
2022-12-17T04:06:30.693Z,20.83
2022-12-17T04:07:30.679Z,20.83
2022-12-17T04:08:30.667Z,20.79
2022-12-17T04:09:30.657Z,20.74
2022-12-17T04:10:30.646Z,20.79
2022-12-17T04:11:30.650Z,20.72
2022-12-17T04:12:30.623Z,20.83
2022-12-17T04:13:30.612Z,20.79
2022-12-17T04:14:30.605Z,20.80
2022-12-17T04:15:30.629Z,20.79
2022-12-17T04:16:30.578Z,20.77
2022-12-17T04:17:30.607Z,20.77
2022-12-17T04:18:30.561Z,20.84
2022-12-17T04:19:30.545Z,20.79
2022-12-17T04:20:30.534Z,20.76
2022-12-17T04:21:30.522Z,20.80
2022-12-17T04:22:30.512Z,20.77
2022-12-17T04:23:30.505Z,20.76
2022-12-17T04:24:30.488Z,20.76
2022-12-17T04:25:30.478Z,20.90
2022-12-17T04:26:30.467Z,20.74
2022-12-17T04:27:30.455Z,20.80
2022-12-17T04:28:30.445Z,20.77
2022-12-17T04:29:30.463Z,20.83
2022-12-17T04:30:30.421Z,20.74
2022-12-17T04:31:30.487Z,20.74
2022-12-17T04:32:35.040Z,20.74
2022-12-17T04:33:31.414Z,20.84
2022-12-17T04:34:30.377Z,20.83
2022-12-17T04:35:30.373Z,20.86
2022-12-17T04:36:30.362Z,20.84
2022-12-17T04:37:30.360Z,20.77
2022-12-17T04:38:30.333Z,20.83
2022-12-17T04:39:30.320Z,20.81
2022-12-17T04:40:30.312Z,20.83
2022-12-17T04:41:30.318Z,20.84
2022-12-17T04:42:30.287Z,20.90
2022-12-17T04:43:30.275Z,20.83
2022-12-17T04:44:30.272Z,20.80
2022-12-17T04:45:30.253Z,20.77
2022-12-17T04:46:30.329Z,20.76
2022-12-17T04:47:30.266Z,20.81
2022-12-17T04:48:30.225Z,20.84
2022-12-17T04:49:30.226Z,20.80
2022-12-17T04:50:30.200Z,20.79
2022-12-17T04:51:30.190Z,20.81
2022-12-17T04:52:30.176Z,20.87
2022-12-17T04:53:30.170Z,20.86
2022-12-17T04:54:30.152Z,20.79
2022-12-17T04:55:30.146Z,20.84
2022-12-17T04:56:30.129Z,20.81
2022-12-17T04:57:30.119Z,20.83
2022-12-17T04:58:30.109Z,20.84
2022-12-17T04:59:30.103Z,20.81
2022-12-17T05:00:30.085Z,20.80
2022-12-17T05:01:30.250Z,20.84
2022-12-17T05:02:30.210Z,20.80
2022-12-17T05:03:30.157Z,20.71
2022-12-17T05:04:30.040Z,20.79
2022-12-17T05:05:30.077Z,20.80
2022-12-17T05:06:30.019Z,20.79
2022-12-17T05:07:30.008Z,20.77
2022-12-17T05:08:30.000Z,20.83
2022-12-17T05:09:29.985Z,20.80
2022-12-17T05:10:29.974Z,20.84
2022-12-17T05:11:29.969Z,20.79
2022-12-17T05:12:29.992Z,20.79
2022-12-17T05:13:29.944Z,20.76
2022-12-17T05:14:29.932Z,20.83
2022-12-17T05:15:29.917Z,20.81
2022-12-17T05:16:30.016Z,20.66
2022-12-17T05:17:29.916Z,20.79
2022-12-17T05:18:29.884Z,20.84
2022-12-17T05:19:29.873Z,20.81
2022-12-17T05:20:29.861Z,20.66
2022-12-17T05:21:33.325Z,20.84
2022-12-17T05:22:29.838Z,20.80
2022-12-17T05:23:29.844Z,20.80
2022-12-17T05:24:29.816Z,20.79
2022-12-17T05:25:29.808Z,20.77
2022-12-17T05:26:29.793Z,20.69
2022-12-17T05:27:29.783Z,20.77
2022-12-17T05:28:29.772Z,20.80
2022-12-17T05:29:29.766Z,20.84
2022-12-17T05:30:29.752Z,20.83
2022-12-17T05:31:29.794Z,20.76
2022-12-17T05:32:29.731Z,20.83
2022-12-17T05:33:29.749Z,20.81
2022-12-17T05:34:29.713Z,20.68
2022-12-17T05:35:29.700Z,20.84
2022-12-17T05:36:29.684Z,20.84
2022-12-17T05:37:29.757Z,20.80
2022-12-17T05:38:29.663Z,20.83
2022-12-17T05:39:29.648Z,20.86
2022-12-17T05:40:29.637Z,20.83
2022-12-17T05:41:29.655Z,20.71
2022-12-17T05:42:29.616Z,20.84
2022-12-17T05:43:29.604Z,20.66
2022-12-17T05:44:29.593Z,20.81
2022-12-17T05:45:29.581Z,20.80
2022-12-17T05:46:29.621Z,20.79
2022-12-17T05:47:29.564Z,20.77
2022-12-17T05:48:29.549Z,20.69
2022-12-17T05:49:29.537Z,20.77
2022-12-17T05:50:29.528Z,20.79
2022-12-17T05:51:29.514Z,20.77
2022-12-17T05:52:29.502Z,20.80
2022-12-17T05:53:29.544Z,20.80
2022-12-17T05:54:29.479Z,20.83
2022-12-17T05:55:29.469Z,20.74
2022-12-17T05:56:29.459Z,20.83
2022-12-17T05:57:29.447Z,20.80
2022-12-17T05:58:29.435Z,20.76
2022-12-17T05:59:29.440Z,20.74
2022-12-17T06:00:29.414Z,20.79
2022-12-17T06:01:29.465Z,20.68
2022-12-17T06:02:29.439Z,20.76
2022-12-17T06:03:29.558Z,20.80
2022-12-17T06:04:29.369Z,20.83
2022-12-17T06:05:29.365Z,20.80
2022-12-17T06:06:29.347Z,20.71
2022-12-17T06:07:29.335Z,20.74
2022-12-17T06:08:29.326Z,20.74
2022-12-17T06:09:29.331Z,20.69
2022-12-17T06:10:29.305Z,20.83
2022-12-17T06:11:29.296Z,20.72
2022-12-17T06:12:29.280Z,20.69
2022-12-17T06:13:29.268Z,20.72
2022-12-17T06:14:29.256Z,20.69
2022-12-17T06:15:29.247Z,20.68
2022-12-17T06:16:29.334Z,20.68
2022-12-17T06:17:29.254Z,20.72
2022-12-17T06:18:29.211Z,20.74
2022-12-17T06:19:29.202Z,20.76
2022-12-17T06:20:29.190Z,20.84
2022-12-17T06:21:29.181Z,20.68
2022-12-17T06:22:29.167Z,20.72
2022-12-17T06:23:29.163Z,20.72
2022-12-17T06:24:29.146Z,20.76
2022-12-17T06:25:29.199Z,20.72
2022-12-17T06:26:29.123Z,20.74
2022-12-17T06:27:29.121Z,20.76
2022-12-17T06:28:29.105Z,20.71
2022-12-17T06:29:29.094Z,20.74
2022-12-17T06:30:29.077Z,20.74
2022-12-17T06:31:29.115Z,20.68
2022-12-17T06:32:29.059Z,20.76
2022-12-17T06:33:29.050Z,20.71
2022-12-17T06:34:29.033Z,20.72
2022-12-17T06:35:29.040Z,20.76
2022-12-17T06:36:29.010Z,20.71
2022-12-17T06:37:29.001Z,20.72
2022-12-17T06:38:28.989Z,20.77
2022-12-17T06:39:28.980Z,20.76
2022-12-17T06:40:28.965Z,20.74
2022-12-17T06:41:28.978Z,20.77
2022-12-17T06:42:28.942Z,20.74
2022-12-17T06:43:28.938Z,20.71
2022-12-17T06:44:28.921Z,20.76
2022-12-17T06:45:28.909Z,20.72
2022-12-17T06:46:29.090Z,20.72
2022-12-17T06:47:28.893Z,20.74
2022-12-17T06:48:28.875Z,20.72
2022-12-17T06:49:28.864Z,20.74
2022-12-17T06:50:28.854Z,20.74
2022-12-17T06:51:28.844Z,20.74
2022-12-17T06:52:28.831Z,20.71
2022-12-17T06:53:28.850Z,20.71
2022-12-17T06:54:28.808Z,20.72
2022-12-17T06:55:28.797Z,20.71
2022-12-17T06:56:28.786Z,20.68
2022-12-17T06:57:28.799Z,20.71
2022-12-17T06:58:28.762Z,20.79
2022-12-17T06:59:28.788Z,20.74
2022-12-17T07:00:28.784Z,20.68
2022-12-17T07:01:28.862Z,20.72
2022-12-17T07:02:28.872Z,20.74
2022-12-17T07:03:28.775Z,20.68
2022-12-17T07:04:28.696Z,20.77
2022-12-17T07:05:28.692Z,20.69
2022-12-17T07:06:28.673Z,20.71
2022-12-17T07:07:28.663Z,20.74
2022-12-17T07:08:28.651Z,20.72
2022-12-17T07:09:28.640Z,20.72
2022-12-17T07:10:28.710Z,20.71
2022-12-17T07:11:28.666Z,20.76
2022-12-17T07:12:28.606Z,20.72
2022-12-17T07:13:28.622Z,20.76
2022-12-17T07:14:28.585Z,20.74
2022-12-17T07:15:28.585Z,20.71
2022-12-17T07:16:28.608Z,20.69
2022-12-17T07:17:28.556Z,20.69
2022-12-17T07:18:28.539Z,20.74
2022-12-17T07:19:28.527Z,20.76
2022-12-17T07:20:28.519Z,20.71
2022-12-17T07:21:28.506Z,20.72
2022-12-17T07:22:28.496Z,20.69
2022-12-17T07:23:28.488Z,20.71
2022-12-17T07:24:28.478Z,20.69
2022-12-17T07:25:28.463Z,20.74
2022-12-17T07:26:28.450Z,20.69
2022-12-17T07:27:28.438Z,20.74
2022-12-17T07:28:28.427Z,20.68
2022-12-17T07:29:28.467Z,20.69
2022-12-17T07:30:28.404Z,20.69
2022-12-17T07:31:28.452Z,20.76
2022-12-17T07:32:28.383Z,20.71
2022-12-17T07:33:28.370Z,20.68
2022-12-17T07:34:28.359Z,20.71
2022-12-17T07:35:28.371Z,20.69
2022-12-17T07:36:28.339Z,20.69
2022-12-17T07:37:28.325Z,20.66
2022-12-17T07:38:28.315Z,20.71
2022-12-17T07:39:28.305Z,20.74
2022-12-17T07:40:28.296Z,20.74
2022-12-17T07:41:28.289Z,20.72
2022-12-17T07:42:28.272Z,20.74
2022-12-17T07:43:28.261Z,20.74
2022-12-17T07:44:28.250Z,20.74
2022-12-17T07:45:28.313Z,20.74
2022-12-17T07:46:28.228Z,20.72
2022-12-17T07:47:28.223Z,20.69
2022-12-17T07:48:28.203Z,20.76
2022-12-17T07:49:28.192Z,20.65
2022-12-17T07:50:28.184Z,20.69
2022-12-17T07:51:28.169Z,20.69
2022-12-17T07:52:28.159Z,20.72
2022-12-17T07:53:28.159Z,20.76
2022-12-17T07:54:28.137Z,20.66
2022-12-17T07:55:28.127Z,20.71
2022-12-17T07:56:28.113Z,20.74
2022-12-17T07:57:28.105Z,20.72
2022-12-17T07:58:28.092Z,20.71
2022-12-17T07:59:28.105Z,20.66
2022-12-17T08:00:28.068Z,20.72
2022-12-17T08:01:28.297Z,20.72
2022-12-17T08:02:28.318Z,20.69
2022-12-17T08:03:28.104Z,20.66
2022-12-17T08:04:28.024Z,20.72
2022-12-17T08:05:28.018Z,20.69
2022-12-17T08:06:28.002Z,20.65
2022-12-17T08:07:27.993Z,20.68
2022-12-17T08:08:27.980Z,20.69
2022-12-17T08:09:27.969Z,20.68
2022-12-17T08:10:27.956Z,20.69
2022-12-17T08:11:27.953Z,20.72
2022-12-17T08:12:27.940Z,20.66
2022-12-17T08:13:27.922Z,20.71
2022-12-17T08:14:27.913Z,20.65
2022-12-17T08:15:27.901Z,20.68
2022-12-17T08:16:27.915Z,20.68
2022-12-17T08:17:27.903Z,20.66
2022-12-17T08:18:27.867Z,20.69
2022-12-17T08:19:27.858Z,20.69
2022-12-17T08:20:27.844Z,20.76
2022-12-17T08:21:27.833Z,20.76
2022-12-17T08:22:27.822Z,20.76
2022-12-17T08:23:27.823Z,20.69
2022-12-17T08:24:27.801Z,20.65
2022-12-17T08:25:27.792Z,20.68
2022-12-17T08:26:27.779Z,20.69
2022-12-17T08:27:27.766Z,20.72
2022-12-17T08:28:49.729Z,20.72
2022-12-17T08:29:28.767Z,20.72
2022-12-17T08:30:27.754Z,20.68
2022-12-17T08:31:27.720Z,20.69
2022-12-17T08:32:27.711Z,20.72
2022-12-17T08:33:27.719Z,20.68
2022-12-17T08:34:27.697Z,20.66
2022-12-17T08:35:27.684Z,20.71
2022-12-17T08:36:27.665Z,20.66
2022-12-17T08:37:27.657Z,20.72
2022-12-17T08:38:27.644Z,20.69
2022-12-17T08:39:27.631Z,20.74
2022-12-17T08:40:27.621Z,20.71
2022-12-17T08:41:27.616Z,20.71
2022-12-17T08:42:27.599Z,20.65
2022-12-17T08:43:27.587Z,20.66
2022-12-17T08:44:27.576Z,20.72
2022-12-17T08:45:27.566Z,20.76
2022-12-17T08:46:27.610Z,20.72
2022-12-17T08:47:27.547Z,20.71
2022-12-17T08:48:27.532Z,20.69
2022-12-17T08:49:27.548Z,20.69
2022-12-17T08:50:27.511Z,20.66
2022-12-17T08:51:27.499Z,20.74
2022-12-17T08:52:27.487Z,20.69
2022-12-17T08:53:30.683Z,20.71
2022-12-17T08:54:28.463Z,20.69
2022-12-17T08:55:27.455Z,20.69
2022-12-17T08:56:27.441Z,20.71
2022-12-17T08:57:32.046Z,20.65
2022-12-17T08:58:27.419Z,20.69
2022-12-17T08:59:27.424Z,20.74
2022-12-17T09:00:27.396Z,20.66
2022-12-17T09:01:27.538Z,20.66
2022-12-17T09:02:27.575Z,20.69
2022-12-17T09:03:27.476Z,20.69
2022-12-17T09:04:27.354Z,20.77
2022-12-17T09:05:27.377Z,20.74
2022-12-17T09:06:27.329Z,20.69
2022-12-17T09:07:27.318Z,20.69
2022-12-17T09:08:27.307Z,20.72
2022-12-17T09:09:27.297Z,20.71
2022-12-17T09:10:27.285Z,20.76
2022-12-17T09:11:27.280Z,20.72
2022-12-17T09:12:27.270Z,20.72
2022-12-17T09:13:27.253Z,20.69
2022-12-17T09:14:27.242Z,20.79
2022-12-17T09:15:27.232Z,20.68
2022-12-17T09:16:27.337Z,20.68
2022-12-17T09:17:27.224Z,20.74
2022-12-17T09:18:27.201Z,20.72
2022-12-17T09:19:27.185Z,20.72
2022-12-17T09:20:29.455Z,20.71
2022-12-17T09:21:27.179Z,20.76
2022-12-17T09:22:27.151Z,20.74
2022-12-17T09:23:27.193Z,20.72
2022-12-17T09:24:27.128Z,20.74
2022-12-17T09:25:27.118Z,20.74
2022-12-17T09:26:27.107Z,20.77
2022-12-17T09:27:27.094Z,20.76
2022-12-17T09:28:27.084Z,20.71
2022-12-17T09:29:27.089Z,20.76
2022-12-17T09:30:27.108Z,20.72
2022-12-17T09:31:30.028Z,20.74
2022-12-17T09:32:28.036Z,20.71
2022-12-17T09:33:27.028Z,20.74
2022-12-17T09:34:27.016Z,20.74
2022-12-17T09:35:27.025Z,20.74
2022-12-17T09:36:26.993Z,20.71
2022-12-17T09:37:27.005Z,20.79
2022-12-17T09:38:26.973Z,20.71
2022-12-17T09:39:26.962Z,20.68
2022-12-17T09:40:26.950Z,20.72
2022-12-17T09:41:26.954Z,20.71
2022-12-17T09:42:26.930Z,20.69
2022-12-17T09:43:26.916Z,20.72
2022-12-17T09:44:26.906Z,20.74
2022-12-17T09:45:26.894Z,20.74
2022-12-17T09:46:26.909Z,20.68
2022-12-17T09:47:26.892Z,20.76
2022-12-17T09:48:32.084Z,20.69
2022-12-17T09:49:27.850Z,20.74
2022-12-17T09:50:26.838Z,20.68
2022-12-17T09:51:26.828Z,20.71
2022-12-17T09:52:26.818Z,20.71
2022-12-17T09:53:26.830Z,20.77
2022-12-17T09:54:26.792Z,20.72
2022-12-17T09:55:26.781Z,20.68
2022-12-17T09:56:26.774Z,20.71
2022-12-17T09:57:26.759Z,20.72
2022-12-17T09:58:26.747Z,20.76
2022-12-17T09:59:26.758Z,20.76
2022-12-17T10:00:26.727Z,20.72
2022-12-17T10:01:26.782Z,20.74
2022-12-17T10:02:26.913Z,20.74
2022-12-17T10:03:26.753Z,20.76
2022-12-17T10:04:26.680Z,20.72
2022-12-17T10:05:26.699Z,20.76
2022-12-17T10:06:26.658Z,20.69
2022-12-17T10:07:26.647Z,20.69
2022-12-17T10:08:26.638Z,20.69
2022-12-17T10:09:26.639Z,20.76
2022-12-17T10:10:26.614Z,20.71
2022-12-17T10:11:31.251Z,20.69
2022-12-17T10:12:27.589Z,20.71
2022-12-17T10:13:26.580Z,20.71
2022-12-17T10:14:26.569Z,20.71
2022-12-17T10:15:26.610Z,20.68
2022-12-17T10:16:26.608Z,20.76
2022-12-17T10:17:26.541Z,20.76
2022-12-17T10:18:26.522Z,20.71
2022-12-17T10:19:26.512Z,20.77
2022-12-17T10:20:26.501Z,20.69
2022-12-17T10:21:26.503Z,20.74
2022-12-17T10:22:26.478Z,20.74
2022-12-17T10:23:26.491Z,20.76
2022-12-17T10:24:26.456Z,20.71
2022-12-17T10:25:26.468Z,20.76
2022-12-17T10:26:26.433Z,20.76
2022-12-17T10:27:26.425Z,20.77
2022-12-17T10:28:26.413Z,20.72
2022-12-17T10:29:26.405Z,20.72
2022-12-17T10:30:26.389Z,20.76
2022-12-17T10:31:26.465Z,20.71
2022-12-17T10:32:26.368Z,20.69
2022-12-17T10:33:26.354Z,20.77
2022-12-17T10:34:26.344Z,20.72
2022-12-17T10:35:26.347Z,20.72
2022-12-17T10:36:26.322Z,20.74
2022-12-17T10:37:26.310Z,20.71
2022-12-17T10:38:26.298Z,20.77
2022-12-17T10:39:26.288Z,20.71
2022-12-17T10:40:26.280Z,20.71
2022-12-17T10:41:26.619Z,20.77
2022-12-17T10:42:29.050Z,20.76
2022-12-17T10:43:27.242Z,20.83
2022-12-17T10:44:26.232Z,20.76
2022-12-17T10:45:26.221Z,20.76
2022-12-17T10:46:26.239Z,20.71
2022-12-17T10:47:26.220Z,20.71
2022-12-17T10:48:26.187Z,20.80
2022-12-17T10:49:26.176Z,20.80
2022-12-17T10:50:26.164Z,20.80
2022-12-17T10:51:26.154Z,20.74
2022-12-17T10:52:26.143Z,20.69
2022-12-17T10:53:26.136Z,20.77
2022-12-17T10:54:26.120Z,20.66
2022-12-17T10:55:26.107Z,20.79
2022-12-17T10:56:26.099Z,20.72
2022-12-17T10:57:26.110Z,20.79
2022-12-17T10:58:26.078Z,20.80
2022-12-17T10:59:26.069Z,20.80
2022-12-17T11:00:26.053Z,20.76
2022-12-17T11:01:26.133Z,20.74
2022-12-17T11:02:26.264Z,20.83
2022-12-17T11:03:26.082Z,20.80
2022-12-17T11:04:26.008Z,20.80
2022-12-17T11:05:26.003Z,20.69
2022-12-17T11:06:25.985Z,20.76
2022-12-17T11:07:25.974Z,20.80
2022-12-17T11:08:25.963Z,20.77
2022-12-17T11:09:25.953Z,20.83
2022-12-17T11:10:25.943Z,20.81
2022-12-17T11:11:25.944Z,20.80
2022-12-17T11:12:30.487Z,20.83
2022-12-17T11:13:26.921Z,20.66
2022-12-17T11:14:25.895Z,20.80
2022-12-17T11:15:25.887Z,20.81
2022-12-17T11:16:25.955Z,20.77
2022-12-17T11:17:25.885Z,20.79
2022-12-17T11:18:25.853Z,20.81
2022-12-17T11:19:25.839Z,20.80
2022-12-17T11:20:25.830Z,20.77
2022-12-17T11:21:25.817Z,20.76
2022-12-17T11:22:25.819Z,20.84
2022-12-17T11:23:25.801Z,20.84
2022-12-17T11:24:25.786Z,20.79
2022-12-17T11:25:25.775Z,20.76
2022-12-17T11:26:25.762Z,20.80
2022-12-17T11:27:25.749Z,20.83
2022-12-17T11:28:25.741Z,20.89
2022-12-17T11:29:25.766Z,20.76
2022-12-17T11:30:30.657Z,20.80
2022-12-17T11:31:26.814Z,20.83
2022-12-17T11:32:25.693Z,20.80
2022-12-17T11:33:25.682Z,20.76
2022-12-17T11:34:25.671Z,20.84
2022-12-17T11:35:25.667Z,20.80
2022-12-17T11:36:31.217Z,20.74
2022-12-17T11:37:26.637Z,20.80
2022-12-17T11:38:25.627Z,20.84
2022-12-17T11:39:25.616Z,20.83
2022-12-17T11:40:25.604Z,20.72
2022-12-17T11:41:25.598Z,20.83
2022-12-17T11:42:25.583Z,20.83
2022-12-17T11:43:25.571Z,20.71
2022-12-17T11:44:25.561Z,20.83
2022-12-17T11:45:25.571Z,20.80
2022-12-17T11:46:25.642Z,20.86
2022-12-17T11:47:25.535Z,20.86
2022-12-17T11:48:25.516Z,20.83
2022-12-17T11:49:25.506Z,20.80
2022-12-17T11:50:25.492Z,20.74
2022-12-17T11:51:25.481Z,20.83
2022-12-17T11:52:25.471Z,20.83
2022-12-17T11:53:28.170Z,20.80
2022-12-17T11:54:25.449Z,20.80
2022-12-17T11:55:25.437Z,20.80
2022-12-17T11:56:25.426Z,20.79
2022-12-17T11:57:25.414Z,20.84
2022-12-17T11:58:25.404Z,20.83
2022-12-17T11:59:25.399Z,20.69
2022-12-17T12:00:25.383Z,20.79
2022-12-17T12:01:25.458Z,20.77
2022-12-17T12:02:25.405Z,20.79
2022-12-17T12:03:25.577Z,20.83
2022-12-17T12:04:25.340Z,20.71
2022-12-17T12:05:25.348Z,20.80
2022-12-17T12:06:25.314Z,20.66
2022-12-17T12:07:25.304Z,20.80
2022-12-17T12:08:25.291Z,20.76
2022-12-17T12:09:25.279Z,20.86
2022-12-17T12:10:25.268Z,20.72
2022-12-17T12:11:31.242Z,20.83
2022-12-17T12:12:26.244Z,20.79
2022-12-17T12:13:25.236Z,20.72
2022-12-17T12:14:25.226Z,20.74
2022-12-17T12:15:25.215Z,20.76
2022-12-17T12:16:25.279Z,20.76
2022-12-17T12:17:25.240Z,20.80
2022-12-17T12:18:25.179Z,20.71
2022-12-17T12:19:25.170Z,20.76
2022-12-17T12:20:25.156Z,20.80
2022-12-17T12:21:25.146Z,20.83
2022-12-17T12:22:30.521Z,20.76
2022-12-17T12:23:26.151Z,20.84
2022-12-17T12:24:25.112Z,20.76
2022-12-17T12:25:25.103Z,20.76
2022-12-17T12:26:25.147Z,20.83
2022-12-17T12:27:25.078Z,20.79
2022-12-17T12:28:25.066Z,20.74
2022-12-17T12:29:25.071Z,20.72
2022-12-17T12:30:25.046Z,20.76
2022-12-17T12:31:25.154Z,20.86
2022-12-17T12:32:25.026Z,20.76
2022-12-17T12:33:25.027Z,20.74
2022-12-17T12:34:25.000Z,20.76
2022-12-17T12:35:24.994Z,20.80
2022-12-17T12:36:24.983Z,20.76
2022-12-17T12:37:24.971Z,20.81
2022-12-17T12:38:24.955Z,20.77
2022-12-17T12:39:24.944Z,20.79
2022-12-17T12:40:24.931Z,20.76
2022-12-17T12:41:24.940Z,20.66
2022-12-17T12:42:24.931Z,20.79
2022-12-17T12:43:24.907Z,20.83
2022-12-17T12:44:24.895Z,20.72
2022-12-17T12:45:24.954Z,20.79
2022-12-17T12:46:24.921Z,20.71
2022-12-17T12:47:24.869Z,20.80
2022-12-17T12:48:24.850Z,20.84
2022-12-17T12:49:24.920Z,20.79
2022-12-17T12:50:24.822Z,20.80
2022-12-17T12:51:28.188Z,20.83
2022-12-17T12:52:25.804Z,20.69